createdAt,value
2024-04-30T00:02:04.084Z,95790.01
2024-04-30T00:04:32.492Z,95786.95
2024-04-30T00:07:00.530Z,95787.88
2024-04-30T00:09:28.471Z,95784.14
2024-04-30T00:11:56.486Z,95788.36
2024-04-30T00:14:24.393Z,95787.38
2024-04-30T00:16:52.526Z,95786.89
2024-04-30T00:19:20.531Z,95788.30
2024-04-30T00:21:48.639Z,95784.59
2024-04-30T00:24:16.450Z,95790.48
2024-04-30T00:26:44.366Z,95788.84
2024-04-30T00:29:12.411Z,95788.46
2024-04-30T00:31:41.527Z,95786.71
2024-04-30T00:34:09.387Z,95787.77
2024-04-30T00:36:38.862Z,95788.84
2024-04-30T00:39:09.220Z,95787.23
2024-04-30T00:41:37.136Z,95785.81
2024-04-30T00:44:05.330Z,95788.10
2024-04-30T00:46:35.960Z,95788.98
2024-04-30T00:49:04.357Z,95785.06
2024-04-30T00:51:32.893Z,95785.08
2024-04-30T00:54:00.899Z,95785.27
2024-04-30T00:56:28.882Z,95784.23
2024-04-30T00:58:56.719Z,95778.34
2024-04-30T01:01:24.758Z,95780.70
2024-04-30T01:03:52.750Z,95778.61
2024-04-30T01:06:22.188Z,95777.49
2024-04-30T01:08:50.299Z,95778.66
2024-04-30T01:11:18.318Z,95783.45
2024-04-30T01:13:46.349Z,95782.07
2024-04-30T01:16:14.384Z,95780.60
2024-04-30T01:18:42.279Z,95784.77
2024-04-30T01:21:10.327Z,95786.70
2024-04-30T01:23:38.168Z,95783.48
2024-04-30T01:26:06.111Z,95785.75
2024-04-30T01:28:34.179Z,95786.64
2024-04-30T01:31:02.252Z,95786.73
2024-04-30T01:33:30.338Z,95790.20
2024-04-30T01:35:59.151Z,95787.12
2024-04-30T01:38:27.149Z,95787.06
2024-04-30T01:40:54.977Z,95787.89
2024-04-30T01:43:22.837Z,95790.89
2024-04-30T01:45:50.794Z,95785.48
2024-04-30T01:48:18.743Z,95789.73
2024-04-30T01:50:46.603Z,95788.66
2024-04-30T01:53:14.503Z,95789.05
2024-04-30T01:55:42.447Z,95785.30
2024-04-30T01:58:11.454Z,95783.45
2024-04-30T02:00:39.611Z,95781.42
2024-04-30T02:03:07.786Z,95782.55
2024-04-30T02:05:35.920Z,95780.36
2024-04-30T02:08:04.006Z,95778.50
2024-04-30T02:10:31.869Z,95776.73
2024-04-30T02:12:59.814Z,95772.46
2024-04-30T02:15:27.672Z,95776.23
2024-04-30T02:17:55.589Z,95769.83
2024-04-30T02:20:23.457Z,95766.11
2024-04-30T02:22:51.360Z,95760.70
2024-04-30T02:25:19.301Z,95759.53
2024-04-30T02:27:47.270Z,95762.48
2024-04-30T02:30:35.102Z,95765.45
2024-04-30T02:33:32.092Z,95763.26
2024-04-30T02:36:00.323Z,95762.38
2024-04-30T02:38:28.517Z,95763.73
2024-04-30T02:40:56.457Z,95762.85
2024-04-30T02:43:24.390Z,95757.63
2024-04-30T02:45:52.259Z,95759.80
2024-04-30T02:48:20.304Z,95761.88
2024-04-30T02:50:48.146Z,95763.00
2024-04-30T02:53:16.085Z,95766.51
2024-04-30T02:55:43.900Z,95766.01
2024-04-30T02:58:11.952Z,95763.92
2024-04-30T03:00:39.966Z,95767.41
2024-04-30T03:03:07.831Z,95762.71
2024-04-30T03:05:36.021Z,95761.33
2024-04-30T03:08:05.226Z,95760.64
2024-04-30T03:10:33.186Z,95759.63
2024-04-30T03:13:01.128Z,95763.98
2024-04-30T03:15:29.114Z,95765.09
2024-04-30T03:17:57.102Z,95764.96
2024-04-30T03:20:25.194Z,95767.16
2024-04-30T03:22:53.028Z,95757.65
2024-04-30T03:25:20.965Z,95763.15
2024-04-30T03:27:48.962Z,95764.11
2024-04-30T03:30:16.899Z,95761.30
2024-04-30T03:32:44.874Z,95770.16
2024-04-30T03:35:12.972Z,95768.48
2024-04-30T03:37:40.970Z,95769.22
2024-04-30T03:40:09.207Z,95773.92
2024-04-30T03:42:37.578Z,95774.31
2024-04-30T03:45:06.260Z,95776.14
2024-04-30T03:47:34.481Z,95772.57
2024-04-30T03:50:02.864Z,95774.25
2024-04-30T03:52:31.324Z,95774.95
2024-04-30T03:54:59.570Z,95779.31
2024-04-30T03:57:27.608Z,95785.16
2024-04-30T03:59:55.512Z,95788.36
2024-04-30T04:02:23.487Z,95790.83
2024-04-30T04:04:51.470Z,95792.84
2024-04-30T04:07:19.540Z,95794.83
2024-04-30T04:09:47.406Z,95796.02
2024-04-30T04:12:33.969Z,95795.93
2024-04-30T04:15:02.002Z,95790.36
2024-04-30T04:17:30.109Z,95795.29
2024-04-30T04:19:58.659Z,95793.62
2024-04-30T04:22:26.834Z,95799.14
2024-04-30T04:24:54.649Z,95801.91
2024-04-30T04:27:22.547Z,95804.54
2024-04-30T04:29:50.357Z,95807.93
2024-04-30T04:32:18.431Z,95810.64
2024-04-30T04:34:46.373Z,95811.23
2024-04-30T04:37:14.261Z,95811.95
2024-04-30T04:39:42.279Z,95814.27
2024-04-30T04:42:10.629Z,95810.47
2024-04-30T04:44:38.701Z,95814.18
2024-04-30T04:47:06.751Z,95809.92
2024-04-30T04:49:34.572Z,95812.42
2024-04-30T04:52:02.523Z,95815.98
2024-04-30T04:54:30.719Z,95810.61
2024-04-30T04:56:58.654Z,95807.32
2024-04-30T04:59:26.935Z,95810.75
2024-04-30T05:01:54.864Z,95810.54
2024-04-30T05:04:23.291Z,95802.80
2024-04-30T05:06:52.834Z,95803.45
2024-04-30T05:09:27.938Z,95803.44
2024-04-30T05:11:58.074Z,95806.56
2024-04-30T05:14:25.971Z,95813.41
2024-04-30T05:16:54.806Z,95808.18
2024-04-30T05:19:22.840Z,95809.66
2024-04-30T05:21:50.962Z,95814.08
2024-04-30T05:24:18.885Z,95815.58
2024-04-30T05:26:46.843Z,95817.45
2024-04-30T05:29:14.675Z,95816.30
2024-04-30T05:31:45.515Z,95813.64
2024-04-30T05:34:13.528Z,95812.77
2024-04-30T05:36:44.589Z,95815.71
2024-04-30T05:39:12.645Z,95813.73
2024-04-30T05:41:40.509Z,95812.89
2024-04-30T05:44:11.429Z,95821.94
2024-04-30T05:46:39.396Z,95827.42
2024-04-30T05:49:07.531Z,95827.85
2024-04-30T05:51:35.657Z,95829.66
2024-04-30T05:54:03.547Z,95828.46
2024-04-30T05:56:31.383Z,95824.02
2024-04-30T05:58:59.337Z,95827.06
2024-04-30T06:01:27.403Z,95821.93
2024-04-30T06:03:55.364Z,95820.33
2024-04-30T06:06:27.030Z,95826.32
2024-04-30T06:08:55.000Z,95826.08
2024-04-30T06:11:23.196Z,95828.14
2024-04-30T06:13:51.495Z,95829.19
2024-04-30T06:16:19.462Z,95829.19
2024-04-30T06:18:47.829Z,95829.65
2024-04-30T06:21:30.548Z,95832.13
2024-04-30T06:23:59.414Z,95828.52
2024-04-30T06:26:29.247Z,95831.49
2024-04-30T06:28:59.842Z,95837.67
2024-04-30T06:31:28.077Z,95842.70
2024-04-30T06:33:56.072Z,95844.16
2024-04-30T06:36:23.980Z,95842.80
2024-04-30T06:38:51.806Z,95844.56
2024-04-30T06:41:19.639Z,95846.30
2024-04-30T06:43:47.723Z,95847.14
2024-04-30T06:46:19.023Z,95847.84
2024-04-30T06:48:49.069Z,95854.91
2024-04-30T06:51:18.394Z,95856.11
2024-04-30T06:53:46.266Z,95851.27
2024-04-30T06:56:14.100Z,95847.35
2024-04-30T06:58:41.998Z,95854.88
2024-04-30T07:01:09.873Z,95854.54
2024-04-30T07:03:37.839Z,95853.80
2024-04-30T07:06:06.487Z,95852.08
2024-04-30T07:08:34.317Z,95851.55
2024-04-30T07:11:02.915Z,95853.23
2024-04-30T07:13:31.401Z,95850.99
2024-04-30T07:15:59.221Z,95851.58
2024-04-30T07:18:27.722Z,95855.74
2024-04-30T07:20:55.633Z,95859.52
2024-04-30T07:23:23.433Z,95860.14
2024-04-30T07:25:51.242Z,95862.05
2024-04-30T07:28:19.389Z,95867.47
2024-04-30T07:30:47.194Z,95870.61
2024-04-30T07:33:15.227Z,95869.34
2024-04-30T07:35:43.338Z,95867.05
2024-04-30T07:38:17.546Z,95863.14
2024-04-30T07:40:47.664Z,95870.99
2024-04-30T07:43:15.491Z,95867.17
2024-04-30T07:45:43.300Z,95866.00
2024-04-30T07:48:11.168Z,95861.11
2024-04-30T07:50:39.187Z,95859.19
2024-04-30T07:53:07.008Z,95853.78
2024-04-30T07:55:35.436Z,95848.26
2024-04-30T07:58:03.793Z,95852.36
2024-04-30T08:00:36.110Z,95861.73
2024-04-30T08:03:06.853Z,95855.81
2024-04-30T08:05:42.636Z,95853.23
2024-04-30T08:08:13.580Z,95851.26
2024-04-30T08:10:41.852Z,95850.04
2024-04-30T08:13:09.813Z,95846.91
2024-04-30T08:15:37.794Z,95844.85
2024-04-30T08:18:05.821Z,95840.67
2024-04-30T08:20:33.771Z,95841.78
2024-04-30T08:23:01.622Z,95845.04
2024-04-30T08:25:29.460Z,95846.77
2024-04-30T08:27:57.290Z,95843.98
2024-04-30T08:30:25.071Z,95836.19
2024-04-30T08:32:53.631Z,95837.66
2024-04-30T08:35:21.509Z,95837.48
2024-04-30T08:37:54.958Z,95834.63
2024-04-30T08:40:29.222Z,95835.92
2024-04-30T08:42:59.981Z,95838.84
2024-04-30T08:45:28.647Z,95837.84
2024-04-30T08:48:01.175Z,95827.50
2024-04-30T08:50:32.380Z,95822.92
2024-04-30T08:53:04.670Z,95818.96
2024-04-30T08:55:34.162Z,95824.52
2024-04-30T08:58:02.472Z,95823.25
2024-04-30T09:00:30.468Z,95819.27
2024-04-30T09:03:02.790Z,95811.86
2024-04-30T09:05:34.037Z,95809.78
2024-04-30T09:08:03.768Z,95803.27
2024-04-30T09:10:31.717Z,95799.53
2024-04-30T09:13:00.094Z,95797.79
2024-04-30T09:15:27.959Z,95789.52
2024-04-30T09:18:08.267Z,95788.29
2024-04-30T09:20:47.116Z,95787.14
2024-04-30T09:23:26.367Z,95783.23
2024-04-30T09:25:54.562Z,95773.52
2024-04-30T09:28:23.954Z,95769.23
2024-04-30T09:30:56.866Z,95769.75
2024-04-30T09:33:26.776Z,95772.16
2024-04-30T09:36:10.535Z,95768.20
2024-04-30T09:38:43.904Z,95765.68
2024-04-30T09:41:13.793Z,95759.07
2024-04-30T09:43:43.468Z,95755.90
2024-04-30T09:46:15.660Z,95747.77
2024-04-30T09:48:44.887Z,95745.23
2024-04-30T09:51:14.225Z,95741.58
2024-04-30T09:53:46.988Z,95742.25
2024-04-30T09:56:14.987Z,95738.55
2024-04-30T09:58:43.260Z,95735.33
2024-04-30T10:01:15.222Z,95732.67
2024-04-30T10:03:46.201Z,95730.63
2024-04-30T10:06:17.548Z,95731.24
2024-04-30T10:08:45.791Z,95732.25
2024-04-30T10:11:13.783Z,95726.45
2024-04-30T10:13:52.359Z,95722.02
2024-04-30T10:16:22.061Z,95722.68
2024-04-30T10:19:01.589Z,95721.90
2024-04-30T10:21:36.611Z,95725.33
2024-04-30T10:24:24.099Z,95712.90
2024-04-30T10:26:52.640Z,95707.91
2024-04-30T10:29:20.585Z,95712.98
2024-04-30T10:31:49.397Z,95711.03
2024-04-30T10:34:19.612Z,95705.57
2024-04-30T10:36:52.006Z,95700.69
2024-04-30T10:39:26.448Z,95700.33
2024-04-30T10:41:54.647Z,95694.45
2024-04-30T10:44:22.884Z,95688.90
2024-04-30T10:46:50.889Z,95681.02
2024-04-30T10:49:21.496Z,95682.96
2024-04-30T10:51:51.291Z,95682.06
2024-04-30T10:54:19.646Z,95675.13
2024-04-30T10:56:47.526Z,95671.45
2024-04-30T10:59:15.368Z,95663.74
2024-04-30T11:01:43.464Z,95665.81
2024-04-30T11:04:12.842Z,95659.05
2024-04-30T11:06:45.378Z,95661.34
2024-04-30T11:09:18.337Z,95664.02
2024-04-30T11:11:49.525Z,95660.02
2024-04-30T11:14:22.172Z,95653.06
2024-04-30T11:16:58.521Z,95644.39
2024-04-30T11:19:26.415Z,95651.48
2024-04-30T11:21:54.347Z,95648.33
2024-04-30T11:24:22.823Z,95638.38
2024-04-30T11:26:51.058Z,95634.38
2024-04-30T11:31:50.132Z,95639.55
2024-04-30T11:34:18.511Z,95640.28
2024-04-30T11:36:47.468Z,95632.86
2024-04-30T11:39:15.513Z,95626.95
2024-04-30T11:41:49.201Z,95624.99
2024-04-30T11:44:25.039Z,95631.48
2024-04-30T11:46:54.837Z,95630.58
2024-04-30T11:49:22.918Z,95624.98
2024-04-30T11:51:50.962Z,95628.27
2024-04-30T11:54:18.736Z,95622.13
2024-04-30T11:56:46.672Z,95626.15
2024-04-30T11:59:14.525Z,95621.48
2024-04-30T12:01:42.330Z,95623.17
2024-04-30T12:04:10.303Z,95616.20
2024-04-30T12:06:39.167Z,95612.11
2024-04-30T12:09:07.452Z,95606.61
2024-04-30T12:11:39.040Z,95605.23
2024-04-30T12:14:06.909Z,95607.43
2024-04-30T12:16:34.783Z,95605.98
2024-04-30T12:19:02.701Z,95601.55
2024-04-30T12:21:30.544Z,95599.33
2024-04-30T12:23:58.424Z,95600.11
2024-04-30T12:26:26.259Z,95593.52
2024-04-30T12:28:54.373Z,95591.45
2024-04-30T12:31:22.198Z,95585.75
2024-04-30T12:33:50.123Z,95582.53
2024-04-30T12:36:17.956Z,95575.80
2024-04-30T12:38:45.772Z,95573.21
2024-04-30T12:41:13.771Z,95567.27
2024-04-30T12:43:41.703Z,95569.60
2024-04-30T12:46:09.759Z,95567.71
2024-04-30T12:48:37.741Z,95559.59
2024-04-30T12:51:05.637Z,95556.94
2024-04-30T12:53:33.506Z,95559.50
2024-04-30T12:56:03.219Z,95556.10
2024-04-30T12:58:31.053Z,95552.01
2024-04-30T13:00:58.945Z,95550.28
2024-04-30T13:03:26.910Z,95545.48
2024-04-30T13:05:54.884Z,95540.19
2024-04-30T13:08:22.739Z,95536.05
2024-04-30T13:10:50.739Z,95539.27
2024-04-30T13:13:18.782Z,95533.31
2024-04-30T13:15:46.617Z,95530.20
2024-04-30T13:18:14.496Z,95523.86
2024-04-30T13:20:42.341Z,95533.27
2024-04-30T13:23:10.204Z,95534.14
2024-04-30T13:25:38.043Z,95531.41
2024-04-30T13:28:06.353Z,95529.44
2024-04-30T13:30:34.387Z,95528.92
2024-04-30T13:33:03.279Z,95531.91
2024-04-30T13:35:31.221Z,95528.30
2024-04-30T13:37:59.342Z,95525.52
2024-04-30T13:40:27.236Z,95523.94
2024-04-30T13:42:55.248Z,95525.25
2024-04-30T13:45:23.083Z,95524.84
2024-04-30T13:47:51.036Z,95520.28
2024-04-30T13:50:19.010Z,95521.80
2024-04-30T13:52:47.039Z,95523.79
2024-04-30T13:55:15.423Z,95523.95
2024-04-30T13:57:44.168Z,95517.90
2024-04-30T14:00:12.294Z,95516.80
2024-04-30T14:02:40.213Z,95517.25
2024-04-30T14:05:08.302Z,95516.72
2024-04-30T14:07:36.124Z,95525.30
2024-04-30T14:10:04.551Z,95525.43
2024-04-30T14:12:32.360Z,95528.09
2024-04-30T14:15:00.282Z,95524.77
2024-04-30T14:17:28.514Z,95528.04
2024-04-30T14:19:56.448Z,95523.58
2024-04-30T14:22:24.324Z,95524.41
2024-04-30T14:24:52.190Z,95522.23
2024-04-30T14:27:20.453Z,95524.70
2024-04-30T14:29:48.386Z,95520.52
2024-04-30T14:32:16.503Z,95515.42
2024-04-30T14:34:44.440Z,95511.25
2024-04-30T14:37:12.444Z,95508.08
2024-04-30T14:39:40.294Z,95511.35
2024-04-30T14:42:08.185Z,95506.94
2024-04-30T14:44:36.092Z,95509.77
2024-04-30T14:47:04.077Z,95503.63
2024-04-30T14:49:32.013Z,95502.11
2024-04-30T14:51:59.833Z,95502.42
2024-04-30T14:54:27.610Z,95502.08
2024-04-30T14:56:55.976Z,95505.72
2024-04-30T14:59:23.989Z,95507.23
2024-04-30T15:01:51.944Z,95510.23
2024-04-30T15:04:20.009Z,95511.42
2024-04-30T15:06:47.977Z,95513.12
2024-04-30T15:09:15.907Z,95510.83
2024-04-30T15:11:43.778Z,95512.45
2024-04-30T15:14:11.904Z,95512.81
2024-04-30T15:16:46.162Z,95505.73
2024-04-30T15:19:14.162Z,95506.06
2024-04-30T15:21:42.951Z,95508.72
2024-04-30T15:24:10.843Z,95512.73
2024-04-30T15:26:39.406Z,95514.17
2024-04-30T15:29:07.238Z,95517.17
2024-04-30T15:31:35.574Z,95513.25
2024-04-30T15:34:03.387Z,95517.13
2024-04-30T15:36:31.272Z,95511.90
2024-04-30T15:38:59.192Z,95514.55
2024-04-30T15:41:27.072Z,95510.55
2024-04-30T15:43:54.922Z,95509.84
2024-04-30T15:46:23.852Z,95508.05
2024-04-30T15:48:53.279Z,95511.34
2024-04-30T15:51:21.160Z,95509.08
2024-04-30T15:53:49.075Z,95506.20
2024-04-30T15:56:19.445Z,95509.55
2024-04-30T15:58:48.840Z,95506.97
2024-04-30T16:01:16.964Z,95509.02
2024-04-30T16:03:45.283Z,95509.34
2024-04-30T16:06:14.218Z,95505.02
2024-04-30T16:08:42.200Z,95502.54
2024-04-30T16:11:11.667Z,95505.49
2024-04-30T16:13:43.404Z,95505.15
2024-04-30T16:16:16.698Z,95505.52
2024-04-30T16:18:47.808Z,95514.94
2024-04-30T16:21:16.855Z,95512.70
2024-04-30T16:23:44.823Z,95518.98
2024-04-30T16:26:12.753Z,95513.42
2024-04-30T16:28:44.505Z,95511.77
2024-04-30T16:31:14.848Z,95509.77
2024-04-30T16:33:43.632Z,95513.66
2024-04-30T16:36:24.459Z,95513.72
2024-04-30T16:38:52.822Z,95509.67
2024-04-30T16:41:20.848Z,95512.95
2024-04-30T16:43:48.691Z,95512.73
2024-04-30T16:46:16.572Z,95511.48
2024-04-30T16:48:44.698Z,95517.55
2024-04-30T16:51:13.956Z,95511.50
2024-04-30T16:53:43.379Z,95515.91
2024-04-30T16:56:11.904Z,95520.52
2024-04-30T16:58:39.730Z,95518.54
2024-04-30T17:01:07.851Z,95517.08
2024-04-30T17:03:40.819Z,95517.86
2024-04-30T17:06:11.911Z,95514.08
2024-04-30T17:08:41.455Z,95517.10
2024-04-30T17:11:10.570Z,95515.30
2024-04-30T17:13:45.226Z,95519.62
2024-04-30T17:16:30.954Z,95513.05
2024-04-30T17:18:58.826Z,95517.70
2024-04-30T17:21:26.757Z,95522.16
2024-04-30T17:23:56.059Z,95529.55
2024-04-30T17:26:27.019Z,95530.98
2024-04-30T17:28:55.814Z,95528.27
2024-04-30T17:31:25.081Z,95528.98
2024-04-30T17:33:56.716Z,95529.94
2024-04-30T17:36:25.740Z,95530.02
2024-04-30T17:38:53.779Z,95536.68
2024-04-30T17:41:23.436Z,95537.83
2024-04-30T17:43:51.910Z,95546.98
2024-04-30T17:46:20.762Z,95547.30
2024-04-30T17:48:49.573Z,95558.17
2024-04-30T17:51:18.060Z,95556.86
2024-04-30T17:53:46.313Z,95557.21
2024-04-30T17:56:14.391Z,95561.61
2024-04-30T17:58:43.530Z,95563.33
2024-04-30T18:01:12.171Z,95559.29
2024-04-30T18:03:49.794Z,95561.89
2024-04-30T18:06:17.667Z,95563.98
2024-04-30T18:08:47.308Z,95565.73
2024-04-30T18:11:16.477Z,95564.02
2024-04-30T18:13:45.126Z,95562.70
2024-04-30T18:16:15.794Z,95573.13
2024-04-30T18:18:43.719Z,95570.25
2024-04-30T18:21:21.606Z,95574.25
2024-04-30T18:23:49.612Z,95578.67
2024-04-30T18:26:17.432Z,95584.55
2024-04-30T18:28:54.704Z,95589.02
2024-04-30T18:31:24.948Z,95597.82
2024-04-30T18:33:53.863Z,95595.02
2024-04-30T18:36:23.687Z,95595.83
2024-04-30T18:38:52.263Z,95597.14
2024-04-30T18:41:27.654Z,95600.54
2024-04-30T18:43:59.096Z,95603.36
2024-04-30T18:46:27.474Z,95602.62
2024-04-30T18:48:55.723Z,95608.19
2024-04-30T18:51:24.037Z,95606.48
2024-04-30T18:53:51.909Z,95606.00
2024-04-30T18:56:19.732Z,95611.34
2024-04-30T18:58:48.453Z,95607.99
2024-04-30T19:01:17.973Z,95607.10
2024-04-30T19:03:48.520Z,95605.20
2024-04-30T19:06:19.786Z,95606.27
2024-04-30T19:08:47.695Z,95611.12
2024-04-30T19:11:17.837Z,95613.37
2024-04-30T19:13:46.196Z,95611.60
2024-04-30T19:16:14.015Z,95610.69
2024-04-30T19:18:42.051Z,95606.65
2024-04-30T19:21:10.044Z,95611.09
2024-04-30T19:23:37.896Z,95608.86
2024-04-30T19:26:13.626Z,95608.13
2024-04-30T19:28:41.506Z,95604.37
2024-04-30T19:31:27.596Z,95596.26
2024-04-30T19:33:55.599Z,95600.31
2024-04-30T19:36:24.663Z,95597.63
2024-04-30T19:38:52.656Z,95601.86
2024-04-30T19:41:20.911Z,95596.92
2024-04-30T19:43:48.847Z,95595.48
2024-04-30T19:46:20.674Z,95594.73
2024-04-30T19:48:51.541Z,95591.06
2024-04-30T19:51:21.528Z,95588.31
2024-04-30T19:53:49.747Z,95590.67
2024-04-30T19:56:19.455Z,95589.38
2024-04-30T19:58:54.689Z,95587.47
2024-04-30T20:01:26.403Z,95582.36
2024-04-30T20:03:57.128Z,95582.44
2024-04-30T20:06:25.244Z,95585.02
2024-04-30T20:08:53.343Z,95581.45
2024-04-30T20:11:24.449Z,95581.65
2024-04-30T20:13:53.363Z,95576.27
2024-04-30T20:16:24.115Z,95573.48
2024-04-30T20:18:52.056Z,95578.17
2024-04-30T20:21:20.276Z,95574.24
2024-04-30T20:23:48.658Z,95573.08
2024-04-30T20:26:17.089Z,95571.16
2024-04-30T20:28:45.174Z,95571.50
2024-04-30T20:31:13.173Z,95572.59
2024-04-30T20:33:41.381Z,95575.55
2024-04-30T20:36:16.600Z,95567.61
2024-04-30T20:38:44.614Z,95569.17
2024-04-30T20:41:13.666Z,95570.96
2024-04-30T20:43:41.596Z,95568.12
2024-04-30T20:46:09.531Z,95565.20
2024-04-30T20:48:37.825Z,95557.86
2024-04-30T20:51:06.059Z,95552.86
2024-04-30T20:53:34.092Z,95553.36
2024-04-30T20:56:05.152Z,95553.55
2024-04-30T20:58:33.157Z,95552.84
2024-04-30T21:01:01.110Z,95547.08
2024-04-30T21:03:31.638Z,95550.91
2024-04-30T21:06:00.718Z,95547.77
2024-04-30T21:08:28.699Z,95550.02
2024-04-30T21:10:56.544Z,95551.45
2024-04-30T21:13:24.585Z,95551.31
2024-04-30T21:15:52.442Z,95550.19
2024-04-30T21:18:20.484Z,95547.10
2024-04-30T21:20:48.492Z,95548.13
2024-04-30T21:23:16.319Z,95550.79
2024-04-30T21:25:44.243Z,95549.05
2024-04-30T21:28:12.260Z,95544.48
2024-04-30T21:30:41.326Z,95546.05
2024-04-30T21:33:09.596Z,95545.44
2024-04-30T21:35:40.712Z,95545.80
2024-04-30T21:38:08.871Z,95541.95
2024-04-30T21:40:36.880Z,95540.38
2024-04-30T21:43:05.027Z,95540.46
2024-04-30T21:45:33.012Z,95539.05
2024-04-30T21:48:00.977Z,95542.62
2024-04-30T21:50:29.082Z,95544.83
2024-04-30T21:52:57.070Z,95546.66
2024-04-30T21:55:24.931Z,95545.18
2024-04-30T21:57:52.862Z,95549.51
2024-04-30T22:00:20.859Z,95552.17
2024-04-30T22:02:49.118Z,95548.11
2024-04-30T22:05:17.158Z,95544.65
2024-04-30T22:07:45.239Z,95543.30
2024-04-30T22:10:13.177Z,95547.38
2024-04-30T22:12:41.295Z,95547.30
2024-04-30T22:15:09.288Z,95541.96
2024-04-30T22:17:37.365Z,95541.20
2024-04-30T22:20:08.206Z,95537.38
2024-04-30T22:22:35.956Z,95536.84
2024-04-30T22:25:04.534Z,95536.62
2024-04-30T22:27:32.514Z,95533.60
2024-04-30T22:30:08.797Z,95535.36
2024-04-30T22:32:45.311Z,95531.39
2024-04-30T22:35:13.544Z,95527.79
2024-04-30T22:37:41.391Z,95525.48
2024-04-30T22:40:09.630Z,95523.70
2024-04-30T22:42:37.885Z,95525.54
2024-04-30T22:45:06.203Z,95518.36
2024-04-30T22:47:34.307Z,95518.70
2024-04-30T22:50:02.672Z,95517.15
2024-04-30T22:52:30.564Z,95510.48
2024-04-30T22:54:58.898Z,95511.43
2024-04-30T22:57:26.951Z,95504.27
2024-04-30T22:59:54.997Z,95505.35
2024-04-30T23:02:23.240Z,95502.69
2024-04-30T23:04:51.155Z,95498.80
2024-04-30T23:07:19.142Z,95498.33
2024-04-30T23:09:47.219Z,95498.14
2024-04-30T23:12:16.052Z,95494.34
2024-04-30T23:14:44.091Z,95494.11
2024-04-30T23:17:12.218Z,95495.00
2024-04-30T23:19:40.283Z,95492.20
2024-04-30T23:22:08.278Z,95495.44
2024-04-30T23:24:36.208Z,95495.79
2024-04-30T23:27:05.212Z,95492.92
2024-04-30T23:29:33.713Z,95489.42
2024-04-30T23:32:01.617Z,95492.69
2024-04-30T23:34:29.634Z,95493.14
2024-04-30T23:36:57.682Z,95492.58
2024-04-30T23:39:25.949Z,95497.55
2024-04-30T23:41:53.906Z,95494.22
2024-04-30T23:44:21.747Z,95493.66
2024-04-30T23:46:49.768Z,95496.38
2024-04-30T23:49:17.706Z,95489.99
2024-04-30T23:51:45.799Z,95489.48
2024-04-30T23:54:15.329Z,95487.41
2024-04-30T23:56:44.043Z,95483.59
2024-04-30T23:59:12.261Z,95485.41
